Los Angeles, California
Traffic Map
Current Weather Conditions
Los Angeles, California
Clear
Clear
52°
Feels Like: 52°
Wind Chill: 52° Ceiling: Unl
Heat Index: 52° Visibility: 10mi
Dew Point: 30° Wind: 0mph
Humidity: 43% Direction: ° ()
Pressure: 30.15in Gusts: 0mph
Raw Report DataKCQT 071047Z AUTO 00000KT 10SM CLR 11/M01 A3015 RMK AO2 SLP207 T01111011
Traffic Incident Summary
Active as of:
Severity:
Category:
InformationThere was an issue retrieving the traffic information for this location. Please try a different location or try again shortly.
Advertisements
Track Severe Weather on mobile